Time;durP1;ratioP1;P1;durP2;ratioP2;P2;SDS_P1;SDS_P2;PMS_P1;PMS_P2;Temp;Humidity;BMP_temperature;BMP_pressure;BME280_temperature;BME280_humidity;BME280_pressure;Samples;Min_cycle;Max_cycle;Signal;HPM_P1;HPM_P2
2023/08/21 00:02:22;;;;;;;11.18;6.45;;;;;;;;;;5054964;28;20048;-64
2023/08/21 00:04:49;;;;;;;11.80;6.05;;;;;;;;;;5052286;28;20061;-63
2023/08/21 00:07:17;;;;;;;10.82;6.35;;;;;;;;;;5035343;28;20084;-63
2023/08/21 00:09:44;;;;;;;9.52;6.18;;;;;;;;;;5053122;28;20088;-63
2023/08/21 00:12:12;;;;;;;15.10;6.55;;;;;;;;;;5071597;28;20032;-63
2023/08/21 00:14:39;;;;;;;12.10;5.85;;;;;;;;;;5072195;28;20052;-63
2023/08/21 00:17:07;;;;;;;12.05;5.78;;;;;;;;;;5054386;28;20079;-63
2023/08/21 00:19:35;;;;;;;12.57;6.00;;;;;;;;;;5072123;28;20048;-63
2023/08/21 00:22:02;;;;;;;10.40;6.18;;;;;;;;;;5061219;28;20037;-63
2023/08/21 00:24:30;;;;;;;12.88;6.25;;;;;;;;;;5059578;28;20115;-63
2023/08/21 00:26:57;;;;;;;9.45;5.80;;;;;;;;;;5056080;28;20056;-62
2023/08/21 00:29:25;;;;;;;8.00;6.25;;;;;;;;;;5039728;28;20610;-63
2023/08/21 00:31:52;;;;;;;11.73;6.15;;;;;;;;;;5050440;28;20041;-63
2023/08/21 00:34:22;;;;;;;12.45;6.30;;;;;;;;;;5057926;28;20106;-63
2023/08/21 00:36:49;;;;;;;10.20;6.18;;;;;;;;;;5041430;28;20036;-63
2023/08/21 00:39:17;;;;;;;9.57;5.82;;;;;;;;;;5051652;28;20052;-63
2023/08/21 00:41:44;;;;;;;11.25;6.13;;;;;;;;;;5055719;28;20135;-63
2023/08/21 00:44:12;;;;;;;10.85;6.30;;;;;;;;;;5038090;28;20048;-63
2023/08/21 00:46:39;;;;;;;10.20;5.85;;;;;;;;;;5043719;28;20597;-63
2023/08/21 00:49:08;;;;;;;10.73;6.20;;;;;;;;;;5057605;28;20075;-63
2023/08/21 00:51:35;;;;;;;15.07;6.30;;;;;;;;;;5057569;28;20040;-62
2023/08/21 00:54:04;;;;;;;13.85;6.30;;;;;;;;;;5041375;28;20052;-63
2023/08/21 00:56:31;;;;;;;8.73;5.60;;;;;;;;;;5057213;28;20036;-62
2023/08/21 00:59:00;;;;;;;8.15;6.00;;;;;;;;;;5075429;28;20379;-63
2023/08/21 01:01:29;;;;;;;12.50;6.60;;;;;;;;;;5075262;28;20123;-63
2023/08/21 01:03:57;;;;;;;8.90;6.35;;;;;;;;;;5054866;28;20062;-65
2023/08/21 01:06:24;;;;;;;9.07;6.10;;;;;;;;;;5055078;28;20033;-63
2023/08/21 01:08:51;;;;;;;13.40;6.50;;;;;;;;;;5037546;28;20056;-65
2023/08/21 01:11:22;;;;;;;14.90;6.70;;;;;;;;;;5020431;28;20045;-64
2023/08/21 01:14:10;;;;;;;9.23;5.95;;;;;;;;;;5056809;28;20056;-64
2023/08/21 01:16:38;;;;;;;9.15;6.45;;;;;;;;;;5053707;28;20076;-64
2023/08/21 01:19:09;;;;;;;13.73;6.50;;;;;;;;;;5038517;28;20491;-64
2023/08/21 01:21:37;;;;;;;9.88;6.88;;;;;;;;;;5037476;28;20036;-64
2023/08/21 01:24:04;;;;;;;13.77;7.43;;;;;;;;;;5036974;28;20041;-64
2023/08/21 01:26:32;;;;;;;11.10;7.13;;;;;;;;;;5036913;28;20037;-64
2023/08/21 01:29:00;;;;;;;11.07;6.78;;;;;;;;;;5036933;28;20041;-64
2023/08/21 01:31:30;;;;;;;19.80;7.13;;;;;;;;;;5045024;28;20132;-64
2023/08/21 01:34:00;;;;;;;13.70;6.85;;;;;;;;;;5052436;28;20048;-64
2023/08/21 01:36:28;;;;;;;15.00;7.32;;;;;;;;;;5056825;28;20402;-64
2023/08/21 01:38:56;;;;;;;14.90;7.40;;;;;;;;;;5056512;28;20045;-64
2023/08/21 01:41:24;;;;;;;13.82;7.40;;;;;;;;;;5045987;28;20115;-64
2023/08/21 01:43:54;;;;;;;13.15;6.60;;;;;;;;;;5036517;28;20140;-64
2023/08/21 01:46:21;;;;;;;14.43;7.50;;;;;;;;;;5038333;28;20110;-64
2023/08/21 01:48:49;;;;;;;11.45;6.45;;;;;;;;;;5054731;28;20127;-64
2023/08/21 01:51:16;;;;;;;14.90;7.70;;;;;;;;;;5036456;28;20087;-64
2023/08/21 01:53:44;;;;;;;14.40;7.53;;;;;;;;;;5055043;28;20090;-64
2023/08/21 01:56:12;;;;;;;16.08;7.43;;;;;;;;;;5056642;28;20051;-64
2023/08/21 01:58:39;;;;;;;13.02;7.80;;;;;;;;;;5049476;28;20037;-64
2023/08/21 02:01:07;;;;;;;13.50;7.65;;;;;;;;;;5042203;28;20084;-63
2023/08/21 02:03:35;;;;;;;14.68;7.65;;;;;;;;;;5044905;28;20048;-63
2023/08/21 02:06:03;;;;;;;11.02;7.53;;;;;;;;;;5036272;28;20045;-64
2023/08/21 02:08:33;;;;;;;10.85;7.10;;;;;;;;;;5066165;28;20049;-63
2023/08/21 02:11:01;;;;;;;14.60;7.63;;;;;;;;;;5047956;28;20131;-63
2023/08/21 02:13:29;;;;;;;11.32;7.60;;;;;;;;;;5036139;28;20041;-64
2023/08/21 02:15:56;;;;;;;12.25;7.45;;;;;;;;;;5040930;28;20391;-63
2023/08/21 02:18:24;;;;;;;13.07;7.90;;;;;;;;;;5070961;28;20056;-63
2023/08/21 02:20:52;;;;;;;12.52;7.90;;;;;;;;;;5041040;28;20045;-64
2023/08/21 02:23:19;;;;;;;10.02;7.22;;;;;;;;;;5035790;28;20049;-64
2023/08/21 02:25:48;;;;;;;12.43;7.38;;;;;;;;;;5035695;28;20102;-63
2023/08/21 02:28:16;;;;;;;12.23;7.00;;;;;;;;;;5053714;28;20047;-64
2023/08/21 02:30:44;;;;;;;9.77;6.57;;;;;;;;;;5038423;28;20051;-64
2023/08/21 02:33:11;;;;;;;11.65;7.90;;;;;;;;;;5055893;28;20136;-64
2023/08/21 02:35:39;;;;;;;13.98;6.72;;;;;;;;;;5055641;28;20045;-64
2023/08/21 02:38:07;;;;;;;9.70;6.97;;;;;;;;;;5040530;28;20047;-64
2023/08/21 02:40:36;;;;;;;9.50;6.97;;;;;;;;;;5053454;28;20057;-63
2023/08/21 02:43:03;;;;;;;11.95;6.78;;;;;;;;;;5053589;28;20125;-64
2023/08/21 02:45:31;;;;;;;12.82;7.00;;;;;;;;;;5037547;28;20054;-64
2023/08/21 02:47:59;;;;;;;12.05;7.53;;;;;;;;;;5055380;28;20044;-64
2023/08/21 02:50:27;;;;;;;11.02;7.20;;;;;;;;;;5072554;28;20434;-64
2023/08/21 02:52:54;;;;;;;12.57;7.00;;;;;;;;;;5048628;28;20057;-64
2023/08/21 02:55:22;;;;;;;10.82;6.80;;;;;;;;;;5035306;28;20044;-64
2023/08/21 02:57:49;;;;;;;10.95;7.20;;;;;;;;;;5035427;28;20158;-64
2023/08/21 03:00:17;;;;;;;11.27;6.72;;;;;;;;;;5034965;28;20049;-64
2023/08/21 03:02:44;;;;;;;13.27;7.47;;;;;;;;;;5034961;28;20044;-64
2023/08/21 03:05:13;;;;;;;13.07;7.35;;;;;;;;;;5052980;28;20124;-64
2023/08/21 03:07:40;;;;;;;11.48;7.43;;;;;;;;;;5052828;28;20036;-64
2023/08/21 03:10:08;;;;;;;11.80;6.88;;;;;;;;;;5061102;28;20040;-63
2023/08/21 03:12:36;;;;;;;13.48;7.30;;;;;;;;;;5054819;28;20443;-63
2023/08/21 03:15:04;;;;;;;12.57;7.38;;;;;;;;;;5054835;28;20072;-63
2023/08/21 03:17:31;;;;;;;10.85;7.85;;;;;;;;;;5054633;28;20591;-63
2023/08/21 03:19:59;;;;;;;11.82;7.47;;;;;;;;;;5054948;28;20113;-63
2023/08/21 03:22:27;;;;;;;10.75;7.90;;;;;;;;;;5054705;28;20049;-63
2023/08/21 03:24:54;;;;;;;11.35;7.50;;;;;;;;;;5054728;28;20351;-63
2023/08/21 03:27:23;;;;;;;13.32;8.27;;;;;;;;;;5054544;28;20352;-63
2023/08/21 03:29:51;;;;;;;14.52;8.02;;;;;;;;;;5039688;28;20134;-64
2023/08/21 03:32:19;;;;;;;14.10;8.23;;;;;;;;;;5041009;28;20043;-64
2023/08/21 03:34:47;;;;;;;15.32;8.35;;;;;;;;;;5034634;28;20490;-63
2023/08/21 03:37:14;;;;;;;11.70;7.82;;;;;;;;;;5034408;28;20146;-64
2023/08/21 03:39:42;;;;;;;16.52;8.00;;;;;;;;;;5034546;28;20044;-64
2023/08/21 03:42:11;;;;;;;16.13;8.60;;;;;;;;;;5037956;28;20461;-63
2023/08/21 03:44:40;;;;;;;14.38;8.50;;;;;;;;;;5034269;28;20056;-63
2023/08/21 03:47:07;;;;;;;14.40;8.38;;;;;;;;;;5044770;28;20591;-64
2023/08/21 03:49:45;;;;;;;14.38;8.25;;;;;;;;;;5034432;28;20562;-64
2023/08/21 03:52:12;;;;;;;12.25;7.80;;;;;;;;;;5051166;28;20041;-63
2023/08/21 03:54:40;;;;;;;12.40;8.43;;;;;;;;;;5034748;28;20040;-63
2023/08/21 03:57:08;;;;;;;13.70;8.43;;;;;;;;;;5052224;28;20110;-63
2023/08/21 03:59:37;;;;;;;14.18;8.73;;;;;;;;;;5045380;28;20036;-63
2023/08/21 04:02:05;;;;;;;11.77;8.43;;;;;;;;;;5043140;28;20048;-64
2023/08/21 04:04:33;;;;;;;18.05;8.57;;;;;;;;;;5038404;28;20130;-63
2023/08/21 04:07:00;;;;;;;17.95;9.02;;;;;;;;;;5038460;28;20132;-63
2023/08/21 04:09:28;;;;;;;19.67;9.02;;;;;;;;;;5038300;28;20049;-63
2023/08/21 04:11:55;;;;;;;18.27;9.40;;;;;;;;;;5039918;28;20056;-64
2023/08/21 04:14:23;;;;;;;15.32;8.57;;;;;;;;;;5038166;28;20518;-63
2023/08/21 04:16:50;;;;;;;14.38;9.20;;;;;;;;;;5050313;28;20036;-64
2023/08/21 04:19:19;;;;;;;22.17;10.02;;;;;;;;;;5058250;28;20048;-63
2023/08/21 04:21:47;;;;;;;20.95;9.95;;;;;;;;;;5042034;28;20036;-64
2023/08/21 04:24:14;;;;;;;17.83;9.55;;;;;;;;;;5076095;28;20468;-64
2023/08/21 04:26:42;;;;;;;19.50;9.70;;;;;;;;;;5057990;28;20037;-65
2023/08/21 04:29:10;;;;;;;14.25;8.82;;;;;;;;;;5057911;28;20044;-63
2023/08/21 04:31:37;;;;;;;16.50;9.27;;;;;;;;;;5047630;28;20090;-64
2023/08/21 04:34:05;;;;;;;15.48;10.13;;;;;;;;;;5038003;28;20053;-64
2023/08/21 04:36:33;;;;;;;15.43;9.68;;;;;;;;;;5037954;28;20049;-64
2023/08/21 04:39:01;;;;;;;22.05;10.30;;;;;;;;;;5072609;28;20041;-64
2023/08/21 04:41:28;;;;;;;21.90;10.60;;;;;;;;;;5075649;28;20401;-64
2023/08/21 04:43:56;;;;;;;16.35;11.25;;;;;;;;;;5075578;28;20068;-63
2023/08/21 04:46:24;;;;;;;17.08;11.63;;;;;;;;;;5053909;28;20097;-64
2023/08/21 04:48:52;;;;;;;17.23;11.52;;;;;;;;;;5052753;28;20037;-64
2023/08/21 04:51:21;;;;;;;17.20;11.80;;;;;;;;;;5037099;28;20041;-63
2023/08/21 04:53:49;;;;;;;16.13;12.70;;;;;;;;;;5037455;28;20052;-63
2023/08/21 04:56:21;;;;;;;15.52;12.90;;;;;;;;;;5054149;28;20037;-63
2023/08/21 04:58:48;;;;;;;21.52;12.68;;;;;;;;;;5054289;28;20045;-63
2023/08/21 05:01:18;;;;;;;18.50;12.38;;;;;;;;;;5053898;28;20049;-64
2023/08/21 05:03:48;;;;;;;21.13;11.98;;;;;;;;;;5054083;28;20048;-63
2023/08/21 05:06:16;;;;;;;19.13;11.70;;;;;;;;;;5037464;28;20055;-63
2023/08/21 05:08:44;;;;;;;21.10;11.45;;;;;;;;;;5036899;28;20441;-64
2023/08/21 05:11:12;;;;;;;15.07;11.20;;;;;;;;;;5037408;28;20041;-63
2023/08/21 05:13:42;;;;;;;22.45;10.82;;;;;;;;;;5053924;28;20041;-63
2023/08/21 05:16:12;;;;;;;16.55;10.40;;;;;;;;;;5054183;28;20060;-64
2023/08/21 05:18:41;;;;;;;14.43;11.27;;;;;;;;;;5037678;28;20049;-63
2023/08/21 05:21:08;;;;;;;16.25;10.43;;;;;;;;;;5053730;28;20041;-64
2023/08/21 05:23:36;;;;;;;15.05;10.10;;;;;;;;;;5037260;28;20073;-64
2023/08/21 05:26:07;;;;;;;17.55;10.48;;;;;;;;;;5037031;28;20040;-64
2023/08/21 05:28:34;;;;;;;17.30;10.88;;;;;;;;;;5053669;28;20083;-64
2023/08/21 05:31:02;;;;;;;14.63;9.45;;;;;;;;;;5053809;28;20053;-63
2023/08/21 05:33:42;;;;;;;18.60;10.13;;;;;;;;;;5036972;28;20060;-64
2023/08/21 05:36:10;;;;;;;17.20;10.07;;;;;;;;;;5036908;28;20052;-64
2023/08/21 05:38:38;;;;;;;16.38;10.18;;;;;;;;;;5053653;28;20446;-64
2023/08/21 05:41:05;;;;;;;14.52;9.70;;;;;;;;;;5054851;28;20048;-64
2023/08/21 05:43:34;;;;;;;17.65;10.35;;;;;;;;;;5053214;28;20058;-64
2023/08/21 05:46:02;;;;;;;11.80;9.30;;;;;;;;;;5036851;28;20044;-64
2023/08/21 05:48:31;;;;;;;13.60;9.82;;;;;;;;;;5054624;28;20064;-64
2023/08/21 05:50:59;;;;;;;15.27;9.18;;;;;;;;;;5036874;28;20402;-64
2023/08/21 05:53:26;;;;;;;17.48;9.25;;;;;;;;;;5036512;28;20441;-64
2023/08/21 05:55:54;;;;;;;11.73;8.13;;;;;;;;;;5036576;28;20052;-64
2023/08/21 05:58:23;;;;;;;11.80;7.60;;;;;;;;;;5036440;28;20060;-64
2023/08/21 06:00:50;;;;;;;12.80;8.35;;;;;;;;;;5054257;28;20057;-64
2023/08/21 06:03:18;;;;;;;12.43;7.60;;;;;;;;;;5054164;28;20041;-64
2023/08/21 06:06:15;;;;;;;9.80;7.28;;;;;;;;;;4999707;28;20070;-64
2023/08/21 06:08:43;;;;;;;12.60;7.82;;;;;;;;;;5036217;28;20408;-64
2023/08/21 06:11:11;;;;;;;15.10;7.55;;;;;;;;;;5052594;28;20049;-64
2023/08/21 06:13:38;;;;;;;9.95;7.20;;;;;;;;;;5053861;28;20068;-64
2023/08/21 06:16:06;;;;;;;11.45;6.90;;;;;;;;;;5052679;28;20049;-64
2023/08/21 06:18:36;;;;;;;12.32;6.90;;;;;;;;;;5052641;28;20144;-64
2023/08/21 06:21:03;;;;;;;12.23;6.82;;;;;;;;;;5035169;28;20886;-64
2023/08/21 06:23:31;;;;;;;10.45;6.82;;;;;;;;;;5036144;28;20399;-64
2023/08/21 06:25:59;;;;;;;12.50;7.18;;;;;;;;;;5053845;28;20052;-64
2023/08/21 06:28:26;;;;;;;13.90;7.05;;;;;;;;;;5052332;28;20041;-64
2023/08/21 06:30:57;;;;;;;10.52;6.72;;;;;;;;;;5035887;28;20494;-64
2023/08/21 06:33:25;;;;;;;10.98;7.03;;;;;;;;;;5052376;28;20049;-64
2023/08/21 06:35:54;;;;;;;9.20;6.85;;;;;;;;;;5035836;28;20493;-64
2023/08/21 06:38:21;;;;;;;11.73;6.63;;;;;;;;;;5035788;28;20099;-64
2023/08/21 06:40:50;;;;;;;7.93;6.60;;;;;;;;;;5035538;28;20048;-64
2023/08/21 06:43:18;;;;;;;9.20;6.22;;;;;;;;;;5053332;28;20048;-64
2023/08/21 06:45:47;;;;;;;9.90;7.03;;;;;;;;;;5053505;28;20055;-64
2023/08/21 06:48:14;;;;;;;13.13;6.82;;;;;;;;;;5052059;28;20451;-64
2023/08/21 06:50:42;;;;;;;215.02;29.15;;;;;;;;;;5053273;28;20053;-64
2023/08/21 06:53:09;;;;;;;39.97;11.38;;;;;;;;;;5053208;28;20041;-64
2023/08/21 06:55:37;;;;;;;27.40;9.50;;;;;;;;;;5053288;28;20045;-63
2023/08/21 06:58:04;;;;;;;30.70;9.25;;;;;;;;;;5053142;28;20107;-64
2023/08/21 07:00:32;;;;;;;37.00;10.15;;;;;;;;;;5053320;28;20048;-63
2023/08/21 07:02:59;;;;;;;23.35;9.13;;;;;;;;;;5053097;28;20037;-63
2023/08/21 07:05:27;;;;;;;17.35;7.18;;;;;;;;;;5053256;28;20415;-64
2023/08/21 07:07:55;;;;;;;11.65;6.75;;;;;;;;;;5053285;28;20386;-63
2023/08/21 07:10:22;;;;;;;15.13;6.88;;;;;;;;;;5053013;28;20053;-63
2023/08/21 07:12:50;;;;;;;12.40;5.95;;;;;;;;;;5053219;28;20047;-65
2023/08/21 07:15:17;;;;;;;11.98;6.22;;;;;;;;;;5052859;28;20033;-64
2023/08/21 07:17:45;;;;;;;15.07;6.15;;;;;;;;;;5053047;28;20045;-63
2023/08/21 07:20:12;;;;;;;11.20;5.60;;;;;;;;;;5035181;28;20113;-64
2023/08/21 07:22:40;;;;;;;15.48;6.45;;;;;;;;;;5052783;28;20047;-64
2023/08/21 07:25:08;;;;;;;15.25;6.80;;;;;;;;;;5052787;28;20119;-64
2023/08/21 07:27:35;;;;;;;14.32;6.57;;;;;;;;;;5052662;28;20064;-64
2023/08/21 07:30:03;;;;;;;16.75;6.57;;;;;;;;;;5052747;28;20156;-64
2023/08/21 07:32:31;;;;;;;10.50;6.50;;;;;;;;;;5052490;28;20060;-64
2023/08/21 07:34:58;;;;;;;13.45;6.43;;;;;;;;;;5034817;28;20478;-64
2023/08/21 07:37:26;;;;;;;10.60;6.30;;;;;;;;;;5052634;28;20090;-65
2023/08/21 07:39:57;;;;;;;12.43;6.05;;;;;;;;;;5052580;28;20124;-64
2023/08/21 07:42:25;;;;;;;13.63;6.07;;;;;;;;;;5034852;28;20108;-63
2023/08/21 07:44:52;;;;;;;12.02;6.28;;;;;;;;;;5052302;28;20045;-64
2023/08/21 07:47:20;;;;;;;13.35;6.78;;;;;;;;;;5052624;28;20041;-64
2023/08/21 07:49:47;;;;;;;19.88;7.68;;;;;;;;;;5052357;28;20033;-64
2023/08/21 07:52:16;;;;;;;16.15;7.18;;;;;;;;;;5052421;28;20045;-64
2023/08/21 07:54:43;;;;;;;12.85;5.85;;;;;;;;;;5052168;28;20529;-64
2023/08/21 07:57:10;;;;;;;12.85;7.63;;;;;;;;;;5052188;28;20063;-63
2023/08/21 07:59:38;;;;;;;10.82;5.90;;;;;;;;;;5050734;28;20139;-63
2023/08/21 08:02:06;;;;;;;9.30;5.47;;;;;;;;;;5052180;28;20051;-64
2023/08/21 08:04:33;;;;;;;10.60;6.18;;;;;;;;;;5052360;28;20080;-64
2023/08/21 08:07:01;;;;;;;8.52;5.55;;;;;;;;;;5052191;28;20048;-64
2023/08/21 08:09:28;;;;;;;8.10;5.40;;;;;;;;;;5052332;28;20041;-64
2023/08/21 08:11:56;;;;;;;7.70;5.43;;;;;;;;;;5052280;28;20387;-64
2023/08/21 08:14:23;;;;;;;12.65;6.25;;;;;;;;;;5052558;28;20055;-64
2023/08/21 08:16:51;;;;;;;9.13;6.00;;;;;;;;;;5052178;28;20045;-64
2023/08/21 08:19:19;;;;;;;10.15;5.55;;;;;;;;;;5052099;28;20061;-64
2023/08/21 08:21:46;;;;;;;9.05;5.68;;;;;;;;;;5052073;28;20037;-64
2023/08/21 08:24:14;;;;;;;8.75;5.28;;;;;;;;;;5051982;28;20063;-64
2023/08/21 08:26:42;;;;;;;7.78;5.88;;;;;;;;;;5051980;28;20047;-64
2023/08/21 08:29:10;;;;;;;9.57;5.28;;;;;;;;;;5051994;28;20041;-64
2023/08/21 08:31:38;;;;;;;13.63;7.40;;;;;;;;;;5051886;28;20067;-64
2023/08/21 08:34:06;;;;;;;6.20;4.07;;;;;;;;;;5051969;28;20530;-64
2023/08/21 08:36:34;;;;;;;13.75;8.88;;;;;;;;;;5050595;28;20056;-64
2023/08/21 08:39:01;;;;;;;14.38;8.57;;;;;;;;;;5051907;28;20569;-64
2023/08/21 08:41:32;;;;;;;10.15;6.97;;;;;;;;;;5051971;28;20055;-64
2023/08/21 08:44:00;;;;;;;10.73;5.82;;;;;;;;;;5052472;28;20546;-65
2023/08/21 08:46:30;;;;;;;10.63;6.70;;;;;;;;;;5055672;28;20437;-63
2023/08/21 08:49:00;;;;;;;10.40;5.82;;;;;;;;;;5055739;28;20041;-64
2023/08/21 08:51:29;;;;;;;6.93;4.80;;;;;;;;;;5055547;28;20059;-64
2023/08/21 08:53:58;;;;;;;8.10;5.53;;;;;;;;;;5055581;28;20049;-64
2023/08/21 08:56:26;;;;;;;8.40;5.20;;;;;;;;;;5055539;28;20041;-64
2023/08/21 08:58:54;;;;;;;7.22;4.78;;;;;;;;;;5054114;28;20037;-64
2023/08/21 09:01:21;;;;;;;19.00;5.60;;;;;;;;;;5055282;28;20049;-64
2023/08/21 09:03:50;;;;;;;9.52;5.05;;;;;;;;;;5055436;28;20037;-64
2023/08/21 09:06:17;;;;;;;15.43;5.97;;;;;;;;;;5055330;28;20045;-64
2023/08/21 09:08:54;;;;;;;11.45;4.90;;;;;;;;;;5055096;28;20372;-64
2023/08/21 09:11:22;;;;;;;11.60;5.32;;;;;;;;;;5055296;28;20044;-63
2023/08/21 09:13:50;;;;;;;9.13;4.93;;;;;;;;;;5055505;28;20063;-64
2023/08/21 09:16:19;;;;;;;9.05;5.30;;;;;;;;;;5054061;28;20045;-64
2023/08/21 09:18:50;;;;;;;7.13;5.43;;;;;;;;;;5055006;28;20045;-64
2023/08/21 09:21:20;;;;;;;9.80;5.30;;;;;;;;;;5055125;28;20498;-64
2023/08/21 09:23:48;;;;;;;6.55;5.60;;;;;;;;;;5054912;28;20455;-64
2023/08/21 09:26:20;;;;;;;7.07;5.13;;;;;;;;;;5055045;28;20045;-63
2023/08/21 09:28:52;;;;;;;7.57;4.97;;;;;;;;;;5037813;28;20403;-63
2023/08/21 09:31:23;;;;;;;6.88;4.88;;;;;;;;;;5054766;28;20043;-64
2023/08/21 09:33:59;;;;;;;11.10;5.35;;;;;;;;;;5054673;28;20044;-64
2023/08/21 09:36:26;;;;;;;13.75;5.60;;;;;;;;;;5054785;28;20045;-65
2023/08/21 09:38:54;;;;;;;8.45;5.40;;;;;;;;;;5054887;28;20040;-64
2023/08/21 09:41:22;;;;;;;14.20;5.85;;;;;;;;;;5053404;28;20049;-64
2023/08/21 09:43:49;;;;;;;7.95;4.75;;;;;;;;;;5054536;28;20128;-64
2023/08/21 09:46:18;;;;;;;7.60;5.15;;;;;;;;;;5054501;28;20119;-64
2023/08/21 09:48:46;;;;;;;6.55;5.28;;;;;;;;;;5054552;28;20037;-64
2023/08/21 09:51:13;;;;;;;7.28;4.95;;;;;;;;;;5054292;28;20545;-64
2023/08/21 09:53:41;;;;;;;8.73;4.97;;;;;;;;;;5054441;28;20041;-64
2023/08/21 09:56:09;;;;;;;7.72;4.80;;;;;;;;;;5054646;28;20029;-64
2023/08/21 09:58:37;;;;;;;6.78;5.47;;;;;;;;;;5054357;28;20124;-64
2023/08/21 10:01:14;;;;;;;10.65;4.60;;;;;;;;;;5054371;28;20072;-64
2023/08/21 10:03:44;;;;;;;7.38;5.43;;;;;;;;;;5036636;28;20051;-65
2023/08/21 10:06:13;;;;;;;8.32;5.10;;;;;;;;;;5054023;28;20076;-64
2023/08/21 10:08:40;;;;;;;8.10;5.43;;;;;;;;;;5054338;28;20044;-64
2023/08/21 10:11:09;;;;;;;7.38;5.13;;;;;;;;;;5054375;28;20431;-64
2023/08/21 10:13:37;;;;;;;10.40;4.57;;;;;;;;;;5054253;28;20116;-64
2023/08/21 10:16:05;;;;;;;8.50;5.25;;;;;;;;;;5054205;28;20112;-64
2023/08/21 10:18:36;;;;;;;7.53;5.15;;;;;;;;;;5054040;28;20064;-64
2023/08/21 10:21:25;;;;;;;7.13;5.50;;;;;;;;;;5053828;28;20125;-64
2023/08/21 10:23:56;;;;;;;8.75;5.28;;;;;;;;;;5053863;28;20402;-63
2023/08/21 10:26:26;;;;;;;7.95;5.40;;;;;;;;;;5053739;28;20063;-64
2023/08/21 10:29:02;;;;;;;6.68;4.97;;;;;;;;;;5053724;28;20567;-64
2023/08/21 10:31:32;;;;;;;5.70;4.97;;;;;;;;;;5053630;28;20060;-64
2023/08/21 10:34:00;;;;;;;8.10;5.25;;;;;;;;;;5053461;28;20041;-64
2023/08/21 10:36:45;;;;;;;7.28;5.10;;;;;;;;;;5053586;28;20045;-64
2023/08/21 10:39:19;;;;;;;8.38;5.15;;;;;;;;;;5053527;28;20424;-64
2023/08/21 10:42:05;;;;;;;8.57;5.47;;;;;;;;;;5053491;28;20116;-64
2023/08/21 10:44:35;;;;;;;10.63;5.90;;;;;;;;;;5053254;28;20045;-64
2023/08/21 10:47:16;;;;;;;6.75;4.80;;;;;;;;;;5053311;28;20457;-64
2023/08/21 10:49:47;;;;;;;9.40;6.07;;;;;;;;;;5053505;28;20407;-64
2023/08/21 10:52:15;;;;;;;11.43;5.97;;;;;;;;;;5053473;28;20037;-64
2023/08/21 10:54:43;;;;;;;8.65;5.60;;;;;;;;;;5053263;28;20045;-64
2023/08/21 10:57:11;;;;;;;8.43;5.43;;;;;;;;;;5053220;28;20037;-65
2023/08/21 10:59:38;;;;;;;12.32;6.22;;;;;;;;;;5035255;28;20056;-64
2023/08/21 11:02:06;;;;;;;7.97;4.95;;;;;;;;;;5053184;28;20033;-64
2023/08/21 11:04:44;;;;;;;7.72;5.35;;;;;;;;;;5052942;28;20044;-65
2023/08/21 11:07:13;;;;;;;6.00;4.53;;;;;;;;;;5052554;28;20041;-65
2023/08/21 11:09:41;;;;;;;8.10;5.03;;;;;;;;;;5052919;28;20403;-65
2023/08/21 11:12:09;;;;;;;5.35;4.72;;;;;;;;;;5052865;28;20052;-65
2023/08/21 11:14:38;;;;;;;6.05;4.93;;;;;;;;;;5053210;28;20395;-65
2023/08/21 11:17:06;;;;;;;5.95;4.65;;;;;;;;;;5052760;28;20037;-65
2023/08/21 11:19:34;;;;;;;8.27;4.53;;;;;;;;;;5052831;28;20124;-65
2023/08/21 11:22:05;;;;;;;6.07;4.40;;;;;;;;;;5052799;28;20045;-64
2023/08/21 11:24:47;;;;;;;9.02;5.10;;;;;;;;;;5052680;28;20041;-65
2023/08/21 11:27:15;;;;;;;5.82;4.90;;;;;;;;;;5052903;28;20434;-65
2023/08/21 11:29:47;;;;;;;8.98;5.47;;;;;;;;;;5052973;28;20040;-64
2023/08/21 11:32:19;;;;;;;9.30;5.00;;;;;;;;;;5052605;28;20044;-64
2023/08/21 11:34:51;;;;;;;7.85;5.30;;;;;;;;;;5034918;28;20057;-64
2023/08/21 11:37:20;;;;;;;7.22;6.18;;;;;;;;;;5052628;28;20041;-64
2023/08/21 11:39:54;;;;;;;6.82;5.03;;;;;;;;;;5052768;28;20041;-64
2023/08/21 11:42:23;;;;;;;5.90;5.30;;;;;;;;;;5052547;28;20044;-64
2023/08/21 11:44:52;;;;;;;8.05;4.68;;;;;;;;;;5052429;28;20047;-64
2023/08/21 11:47:21;;;;;;;6.85;4.93;;;;;;;;;;5052841;28;20053;-64
2023/08/21 11:49:49;;;;;;;7.18;5.00;;;;;;;;;;5052702;28;20367;-65
2023/08/21 11:52:20;;;;;;;12.45;5.47;;;;;;;;;;5052482;28;20518;-65
2023/08/21 11:54:49;;;;;;;9.23;4.70;;;;;;;;;;5052428;28;20053;-65
2023/08/21 11:57:17;;;;;;;9.48;6.43;;;;;;;;;;5052337;28;20037;-64
2023/08/21 11:59:52;;;;;;;7.63;4.70;;;;;;;;;;5052348;28;20083;-65
2023/08/21 12:02:23;;;;;;;10.85;5.72;;;;;;;;;;5052491;28;20072;-64
2023/08/21 12:05:14;;;;;;;7.88;6.30;;;;;;;;;;5052167;28;20041;-64
2023/08/21 12:07:41;;;;;;;9.90;4.80;;;;;;;;;;5052491;28;20466;-64
2023/08/21 12:10:09;;;;;;;6.75;5.07;;;;;;;;;;5052107;28;20036;-64
2023/08/21 12:12:36;;;;;;;7.00;5.07;;;;;;;;;;5052139;28;20045;-64
2023/08/21 12:15:04;;;;;;;8.60;5.50;;;;;;;;;;5052142;28;20919;-64
2023/08/21 12:17:32;;;;;;;6.38;5.75;;;;;;;;;;5034265;28;20049;-65
2023/08/21 12:19:59;;;;;;;7.28;5.55;;;;;;;;;;5054768;28;20393;-65
2023/08/21 12:22:29;;;;;;;6.25;5.00;;;;;;;;;;5056213;28;20534;-65
2023/08/21 12:24:57;;;;;;;7.38;4.90;;;;;;;;;;5038311;28;20120;-65
2023/08/21 12:27:24;;;;;;;6.68;4.68;;;;;;;;;;5055688;28;20483;-65
2023/08/21 12:29:52;;;;;;;6.70;5.35;;;;;;;;;;5055900;28;20495;-65
2023/08/21 12:32:19;;;;;;;9.50;5.00;;;;;;;;;;5055893;28;20045;-65
2023/08/21 12:34:47;;;;;;;6.60;4.28;;;;;;;;;;5056029;28;20446;-65
2023/08/21 12:37:15;;;;;;;5.53;4.40;;;;;;;;;;5056132;28;20052;-65
2023/08/21 12:39:44;;;;;;;8.20;4.03;;;;;;;;;;5055932;28;20064;-65
2023/08/21 12:42:12;;;;;;;11.43;4.50;;;;;;;;;;5055709;28;20033;-65
2023/08/21 12:44:40;;;;;;;11.23;4.65;;;;;;;;;;5055825;28;20371;-65
2023/08/21 12:47:07;;;;;;;6.65;4.80;;;;;;;;;;5055678;28;20037;-64
2023/08/21 12:49:37;;;;;;;9.18;5.00;;;;;;;;;;5055727;28;20045;-65
2023/08/21 12:52:06;;;;;;;7.57;4.90;;;;;;;;;;5056222;28;20472;-65
2023/08/21 12:54:37;;;;;;;5.05;4.07;;;;;;;;;;5055482;28;20123;-64
2023/08/21 12:57:05;;;;;;;6.30;4.35;;;;;;;;;;5055800;28;20394;-65
2023/08/21 12:59:32;;;;;;;7.45;4.32;;;;;;;;;;5055424;28;20108;-64
2023/08/21 13:02:01;;;;;;;7.93;4.55;;;;;;;;;;5055369;28;20045;-64
2023/08/21 13:04:28;;;;;;;8.52;4.70;;;;;;;;;;5055408;28;20410;-65
2023/08/21 13:06:57;;;;;;;6.95;4.70;;;;;;;;;;5055348;28;20048;-64
2023/08/21 13:09:25;;;;;;;6.95;4.50;;;;;;;;;;5055345;28;20041;-65
2023/08/21 13:11:52;;;;;;;5.25;4.45;;;;;;;;;;5057711;28;20049;-65
2023/08/21 13:14:20;;;;;;;8.30;4.15;;;;;;;;;;5071731;28;20071;-65
2023/08/21 13:16:47;;;;;;;7.75;5.00;;;;;;;;;;5054539;28;20052;-65
2023/08/21 13:19:15;;;;;;;6.13;4.03;;;;;;;;;;5075066;28;20123;-65
2023/08/21 13:21:43;;;;;;;8.10;4.78;;;;;;;;;;5075035;28;20043;-65
2023/08/21 13:24:10;;;;;;;5.90;4.10;;;;;;;;;;5074933;28;20102;-65
2023/08/21 13:26:38;;;;;;;6.55;4.32;;;;;;;;;;5075067;28;20364;-65
2023/08/21 13:29:07;;;;;;;9.07;5.53;;;;;;;;;;5074970;28;20044;-65
2023/08/21 13:31:35;;;;;;;7.03;4.50;;;;;;;;;;5074426;28;20098;-65
2023/08/21 13:34:03;;;;;;;5.30;4.53;;;;;;;;;;5074966;28;20036;-65
2023/08/21 13:36:31;;;;;;;5.65;4.38;;;;;;;;;;5074874;28;20036;-64
2023/08/21 13:38:58;;;;;;;9.15;4.20;;;;;;;;;;5074731;28;20040;-65
2023/08/21 13:41:26;;;;;;;5.75;3.90;;;;;;;;;;5074576;28;20036;-65
2023/08/21 13:43:53;;;;;;;9.63;4.60;;;;;;;;;;5056107;28;20041;-65
2023/08/21 13:46:22;;;;;;;6.93;4.60;;;;;;;;;;5040939;28;20417;-65
2023/08/21 13:48:49;;;;;;;6.68;4.78;;;;;;;;;;5074594;28;20047;-65
2023/08/21 13:51:17;;;;;;;6.22;3.95;;;;;;;;;;5074636;28;20075;-65
2023/08/21 13:53:48;;;;;;;7.15;4.07;;;;;;;;;;5074520;28;20037;-65
2023/08/21 13:56:15;;;;;;;5.65;3.95;;;;;;;;;;5074436;28;20056;-65
2023/08/21 13:58:43;;;;;;;6.38;4.22;;;;;;;;;;5056254;28;20131;-65
2023/08/21 14:01:10;;;;;;;9.60;4.78;;;;;;;;;;5074016;28;20075;-65
2023/08/21 14:03:38;;;;;;;11.90;4.85;;;;;;;;;;5074124;28;20047;-65
2023/08/21 14:06:05;;;;;;;16.50;5.40;;;;;;;;;;5074405;28;20390;-65
2023/08/21 14:08:33;;;;;;;8.68;4.50;;;;;;;;;;5074415;28;20071;-65
2023/08/21 14:11:00;;;;;;;5.00;4.47;;;;;;;;;;5073896;28;20078;-64
2023/08/21 14:13:28;;;;;;;8.07;4.57;;;;;;;;;;5073958;28;20112;-63
2023/08/21 14:15:55;;;;;;;7.38;4.47;;;;;;;;;;5039498;28;20044;-63
2023/08/21 14:18:23;;;;;;;8.30;4.95;;;;;;;;;;5073314;28;20041;-63
2023/08/21 14:20:51;;;;;;;6.78;4.60;;;;;;;;;;5073230;28;20115;-63
2023/08/21 14:23:18;;;;;;;6.93;4.10;;;;;;;;;;5072844;28;20102;-63
2023/08/21 14:25:46;;;;;;;7.22;4.30;;;;;;;;;;5057210;28;20558;-63
2023/08/21 14:28:13;;;;;;;6.78;4.43;;;;;;;;;;5051718;28;20048;-63
2023/08/21 14:30:41;;;;;;;7.55;4.35;;;;;;;;;;5065867;28;20040;-64
2023/08/21 14:33:09;;;;;;;7.55;4.20;;;;;;;;;;5062907;28;20728;-63
2023/08/21 14:35:36;;;;;;;8.02;4.18;;;;;;;;;;5067689;28;20049;-63
2023/08/21 14:38:04;;;;;;;7.05;4.60;;;;;;;;;;5067462;28;20381;-64
2023/08/21 14:40:31;;;;;;;12.05;4.78;;;;;;;;;;5067011;28;20075;-64
2023/08/21 14:42:59;;;;;;;13.02;5.43;;;;;;;;;;5036766;28;20048;-64